createdAt,value
2022-12-26T00:01:56.515Z,1.80
2022-12-26T00:04:50.755Z,2.33
2022-12-26T00:07:15.369Z,2.17
2022-12-26T00:09:43.939Z,1.90
2022-12-26T00:12:12.307Z,1.73
2022-12-26T00:14:41.292Z,1.80
2022-12-26T00:17:09.673Z,1.60
2022-12-26T00:19:39.372Z,1.60
2022-12-26T00:22:07.735Z,1.60
2022-12-26T00:24:36.109Z,1.70
2022-12-26T00:27:04.485Z,1.63
2022-12-26T00:29:33.030Z,1.47
2022-12-26T00:32:01.481Z,2.40
2022-12-26T00:34:29.964Z,2.00
2022-12-26T00:36:59.638Z,1.80
2022-12-26T00:39:27.959Z,1.90
2022-12-26T00:41:56.284Z,1.60
2022-12-26T00:44:24.714Z,1.30
2022-12-26T00:46:55.195Z,1.53
2022-12-26T00:49:23.663Z,1.50
2022-12-26T00:51:52.004Z,1.50
2022-12-26T00:54:21.703Z,1.67
2022-12-26T00:56:50.033Z,2.00
2022-12-26T00:59:18.354Z,1.93
2022-12-26T01:01:46.826Z,1.67
2022-12-26T01:04:15.350Z,1.93
2022-12-26T01:06:43.666Z,1.77
2022-12-26T01:09:12.229Z,1.97
2022-12-26T01:11:42.138Z,1.80
2022-12-26T01:14:13.878Z,1.77
2022-12-26T01:16:43.844Z,1.67
2022-12-26T01:19:13.043Z,1.50
2022-12-26T01:21:43.107Z,1.80
2022-12-26T01:24:11.785Z,1.90
2022-12-26T01:27:17.737Z,1.57
2022-12-26T01:29:46.312Z,1.70
2022-12-26T01:32:14.673Z,1.90
2022-12-26T01:34:43.133Z,1.83
2022-12-26T01:37:13.661Z,1.63
2022-12-26T01:39:42.277Z,1.77
2022-12-26T01:42:14.605Z,1.70
2022-12-26T01:45:04.794Z,1.60
2022-12-26T01:47:43.072Z,1.67
2022-12-26T01:50:34.146Z,1.50
2022-12-26T01:53:09.624Z,1.73
2022-12-26T01:55:40.212Z,1.60
2022-12-26T01:58:14.949Z,2.10
2022-12-26T02:00:44.773Z,1.60
2022-12-26T02:03:31.486Z,2.00
2022-12-26T02:06:02.159Z,1.77
2022-12-26T02:08:35.379Z,1.50
2022-12-26T02:11:13.766Z,1.90
2022-12-26T02:13:42.668Z,1.60
2022-12-26T02:16:15.647Z,1.83
2022-12-26T02:18:44.278Z,1.60
2022-12-26T02:21:47.233Z,1.93
2022-12-26T02:25:05.109Z,1.90
2022-12-26T02:28:11.774Z,1.93
2022-12-26T02:30:47.889Z,1.50
2022-12-26T02:33:42.736Z,1.63
2022-12-26T02:36:30.801Z,1.30
2022-12-26T02:39:43.410Z,1.67
2022-12-26T02:42:15.282Z,1.67
2022-12-26T02:45:06.567Z,1.43
2022-12-26T02:47:43.682Z,1.40
2022-12-26T02:50:40.520Z,1.67
2022-12-26T02:53:31.900Z,1.73
2022-12-26T02:56:25.437Z,1.80
2022-12-26T02:59:18.010Z,1.87
2022-12-26T03:02:07.587Z,1.90
2022-12-26T03:04:58.510Z,1.77
2022-12-26T03:07:48.495Z,2.00
2022-12-26T03:10:39.295Z,1.60
2022-12-26T03:13:16.966Z,2.07
2022-12-26T03:16:11.756Z,1.50
2022-12-26T03:18:59.041Z,1.40
2022-12-26T03:21:34.059Z,1.60
2022-12-26T03:24:02.373Z,1.50
2022-12-26T03:26:41.537Z,1.60
2022-12-26T03:29:31.025Z,1.63
2022-12-26T03:32:01.515Z,1.47
2022-12-26T03:34:30.202Z,1.70
2022-12-26T03:37:49.097Z,1.40
2022-12-26T03:41:12.347Z,1.60
2022-12-26T03:44:38.491Z,1.50
2022-12-26T03:47:41.938Z,1.60
2022-12-26T03:50:44.020Z,1.80
2022-12-26T03:53:40.799Z,1.30
2022-12-26T03:56:32.878Z,1.73
2022-12-26T03:59:24.509Z,1.30
2022-12-26T04:02:08.277Z,1.70
2022-12-26T04:04:58.862Z,2.00
2022-12-26T04:07:56.444Z,2.27
2022-12-26T04:10:49.428Z,2.13
2022-12-26T04:13:40.602Z,2.00
2022-12-26T04:16:38.728Z,1.50
2022-12-26T04:19:27.216Z,1.70
2022-12-26T04:22:22.144Z,1.77
2022-12-26T04:25:15.083Z,1.40
2022-12-26T04:28:02.672Z,1.60
2022-12-26T04:30:51.870Z,1.60
2022-12-26T04:33:44.287Z,1.57
2022-12-26T04:36:36.007Z,1.60
2022-12-26T04:39:25.211Z,1.63
2022-12-26T04:42:11.486Z,1.90
2022-12-26T04:44:44.023Z,1.73
2022-12-26T04:47:13.034Z,1.80
2022-12-26T04:50:03.195Z,1.80
2022-12-26T04:52:45.853Z,2.37
2022-12-26T04:55:14.430Z,1.50
2022-12-26T04:57:42.916Z,1.60
2022-12-26T05:00:14.585Z,1.60
2022-12-26T05:03:00.656Z,1.53
2022-12-26T05:05:46.724Z,1.70
2022-12-26T05:08:40.619Z,1.83
2022-12-26T05:11:08.933Z,1.80
2022-12-26T05:13:37.286Z,1.80
2022-12-26T05:16:26.343Z,1.60
2022-12-26T05:19:12.535Z,1.40
2022-12-26T05:21:58.289Z,1.60
2022-12-26T05:24:45.998Z,1.57
2022-12-26T05:27:34.262Z,1.60
2022-12-26T05:30:02.718Z,2.00
2022-12-26T05:32:49.632Z,1.50
2022-12-26T05:35:17.965Z,1.60
2022-12-26T05:37:48.928Z,1.70
2022-12-26T05:40:17.368Z,1.67
2022-12-26T05:42:45.665Z,1.43
2022-12-26T05:45:14.171Z,1.50
2022-12-26T05:47:48.350Z,1.83
2022-12-26T05:50:20.121Z,1.60
2022-12-26T05:52:48.444Z,1.53
2022-12-26T05:55:17.196Z,2.40
2022-12-26T05:57:45.600Z,1.90
2022-12-26T06:00:15.812Z,2.00
2022-12-26T06:02:45.655Z,1.73
2022-12-26T06:05:14.067Z,1.97
2022-12-26T06:07:42.506Z,1.80
2022-12-26T06:10:11.669Z,1.73
2022-12-26T06:12:40.088Z,1.73
2022-12-26T06:15:09.836Z,1.97
2022-12-26T06:17:38.206Z,2.30
2022-12-26T06:20:09.955Z,2.10
2022-12-26T06:22:38.415Z,1.97
2022-12-26T06:25:08.464Z,1.97
2022-12-26T06:27:37.031Z,1.87
2022-12-26T06:30:06.684Z,1.60
2022-12-26T06:32:35.420Z,1.60
2022-12-26T06:35:03.757Z,1.70
2022-12-26T06:37:34.777Z,1.80
2022-12-26T06:40:03.118Z,1.90
2022-12-26T06:42:33.511Z,2.07
2022-12-26T06:45:02.176Z,1.60
2022-12-26T06:47:30.644Z,2.30
2022-12-26T06:49:59.047Z,1.70
2022-12-26T06:52:27.452Z,1.50
2022-12-26T06:54:58.852Z,1.40
2022-12-26T06:57:27.215Z,1.77
2022-12-26T06:59:55.576Z,1.60
2022-12-26T07:02:24.071Z,1.70
2022-12-26T07:04:52.491Z,1.50
2022-12-26T07:07:20.808Z,1.50
2022-12-26T07:09:49.106Z,1.60
2022-12-26T07:12:20.912Z,1.50
2022-12-26T07:14:49.898Z,1.63
2022-12-26T07:17:18.279Z,1.87
2022-12-26T07:19:46.587Z,1.80
2022-12-26T07:22:14.861Z,1.80
2022-12-26T07:24:43.203Z,1.87
2022-12-26T07:27:11.512Z,2.00
2022-12-26T07:29:41.237Z,1.70
2022-12-26T07:32:09.547Z,1.87
2022-12-26T07:34:37.882Z,1.87
2022-12-26T07:37:06.331Z,2.10
2022-12-26T07:39:35.647Z,2.03
2022-12-26T07:42:04.051Z,2.10
2022-12-26T07:44:34.712Z,2.10
2022-12-26T07:47:04.360Z,1.87
2022-12-26T07:49:32.695Z,2.00
2022-12-26T07:52:01.854Z,1.60
2022-12-26T07:54:32.229Z,1.70
2022-12-26T07:57:29.710Z,1.53
2022-12-26T07:59:52.098Z,1.53
2022-12-26T08:02:25.097Z,1.87
2022-12-26T08:04:53.687Z,1.63
2022-12-26T08:07:22.007Z,1.60
2022-12-26T08:09:50.395Z,1.60
2022-12-26T08:12:21.617Z,1.90
2022-12-26T08:14:50.361Z,1.97
2022-12-26T08:17:18.771Z,1.60
2022-12-26T08:19:48.506Z,1.80
2022-12-26T08:22:16.867Z,2.03
2022-12-26T08:24:45.211Z,5.27
2022-12-26T08:27:13.559Z,3.70
2022-12-26T08:29:41.868Z,2.70
2022-12-26T08:32:10.156Z,2.07
2022-12-26T08:34:38.498Z,2.13
2022-12-26T08:37:08.213Z,1.93
2022-12-26T08:39:36.570Z,2.13
2022-12-26T08:42:05.063Z,1.80
2022-12-26T08:44:33.419Z,2.13
2022-12-26T08:47:01.726Z,1.63
2022-12-26T08:49:30.093Z,2.00
2022-12-26T08:51:58.420Z,2.17
2022-12-26T08:54:28.168Z,2.13
2022-12-26T08:56:56.492Z,1.70
2022-12-26T08:59:24.823Z,2.30
2022-12-26T09:01:53.634Z,1.90
2022-12-26T09:04:22.052Z,1.90
2022-12-26T09:06:50.402Z,1.90
2022-12-26T09:09:18.749Z,1.83
2022-12-26T09:11:48.480Z,2.10
2022-12-26T09:14:16.819Z,1.90
2022-12-26T09:16:50.967Z,1.60
2022-12-26T09:19:21.159Z,2.03
2022-12-26T09:22:11.192Z,2.70
2022-12-26T09:24:39.500Z,2.43
2022-12-26T09:27:09.489Z,2.50
2022-12-26T09:29:39.246Z,1.97
2022-12-26T09:32:07.687Z,1.87
2022-12-26T09:34:35.994Z,1.80
2022-12-26T09:37:04.501Z,2.10
2022-12-26T09:39:33.009Z,1.73
2022-12-26T09:42:18.392Z,1.40
2022-12-26T09:44:58.455Z,1.67
2022-12-26T09:47:34.670Z,1.70
2022-12-26T09:50:13.250Z,1.60
2022-12-26T09:52:49.627Z,2.00
2022-12-26T09:55:37.165Z,2.03
2022-12-26T09:58:18.233Z,1.93
2022-12-26T10:00:53.480Z,1.80
2022-12-26T10:03:23.404Z,1.43
2022-12-26T10:06:07.811Z,1.90
2022-12-26T10:09:16.811Z,1.70
2022-12-26T10:12:01.281Z,1.80
2022-12-26T10:14:42.813Z,1.60
2022-12-26T10:17:21.174Z,1.60
2022-12-26T10:20:09.130Z,1.47
2022-12-26T10:23:03.909Z,1.80
2022-12-26T10:25:43.333Z,1.77
2022-12-26T10:28:19.934Z,1.73
2022-12-26T10:30:51.606Z,1.53
2022-12-26T10:33:34.394Z,1.53
2022-12-26T10:36:03.426Z,1.40
2022-12-26T10:38:39.137Z,1.63
2022-12-26T10:41:15.588Z,1.67
2022-12-26T10:43:45.637Z,1.30
2022-12-26T10:46:50.252Z,1.63
2022-12-26T10:49:23.571Z,3.43
2022-12-26T10:51:52.680Z,3.77
2022-12-26T10:54:21.387Z,2.47
2022-12-26T10:56:53.026Z,1.77
2022-12-26T10:59:39.990Z,1.40
2022-12-26T11:02:26.452Z,1.33
2022-12-26T11:05:22.086Z,1.30
2022-12-26T11:08:09.317Z,1.30
2022-12-26T11:10:38.442Z,1.43
2022-12-26T11:13:09.827Z,1.80
2022-12-26T11:15:42.870Z,1.80
2022-12-26T11:18:22.175Z,2.03
2022-12-26T11:20:51.717Z,1.80
2022-12-26T11:23:28.270Z,1.50
2022-12-26T11:25:58.819Z,1.30
2022-12-26T11:28:33.650Z,2.00
2022-12-26T11:31:06.355Z,1.50
2022-12-26T11:33:43.324Z,1.90
2022-12-26T11:36:19.873Z,2.23
2022-12-26T11:38:53.570Z,2.90
2022-12-26T11:41:39.891Z,2.10
2022-12-26T11:44:25.138Z,2.87
2022-12-26T11:46:59.577Z,2.10
2022-12-26T11:49:34.166Z,2.40
2022-12-26T11:52:25.032Z,2.10
2022-12-26T11:54:53.404Z,1.50
2022-12-26T11:57:25.926Z,2.60
2022-12-26T11:59:54.820Z,4.20
2022-12-26T12:02:28.089Z,2.63
2022-12-26T12:05:02.981Z,3.40
2022-12-26T12:08:12.510Z,2.30
2022-12-26T12:11:22.570Z,3.17
2022-12-26T12:14:15.224Z,1.90
2022-12-26T12:16:53.510Z,2.30
2022-12-26T12:19:36.462Z,2.93
2022-12-26T12:22:50.769Z,2.10
2022-12-26T12:25:31.892Z,2.17
2022-12-26T12:28:08.910Z,1.80
2022-12-26T12:30:49.730Z,2.00
2022-12-26T12:33:40.009Z,1.83
2022-12-26T12:36:11.811Z,1.40
2022-12-26T12:39:16.860Z,1.73
2022-12-26T12:42:07.928Z,1.60
2022-12-26T12:44:55.789Z,2.07
2022-12-26T12:47:38.912Z,1.40
2022-12-26T12:50:18.327Z,1.70
2022-12-26T12:52:56.751Z,1.50
2022-12-26T12:55:44.383Z,1.73
2022-12-26T12:58:23.360Z,1.60
2022-12-26T13:00:55.873Z,1.30
2022-12-26T13:03:31.799Z,1.70
2022-12-26T13:06:07.612Z,1.70
2022-12-26T13:08:41.605Z,1.70
2022-12-26T13:11:18.945Z,1.33
2022-12-26T13:13:54.041Z,1.40
2022-12-26T13:16:26.997Z,1.33
2022-12-26T13:19:02.071Z,1.50
2022-12-26T13:21:37.692Z,1.60
2022-12-26T13:24:24.285Z,2.17
2022-12-26T13:27:02.768Z,1.90
2022-12-26T13:29:39.795Z,2.00
2022-12-26T13:32:21.099Z,1.70
2022-12-26T13:34:51.694Z,1.90
2022-12-26T13:38:01.740Z,1.90
2022-12-26T13:40:32.321Z,2.40
2022-12-26T13:43:32.432Z,2.60
2022-12-26T13:46:01.897Z,2.07
2022-12-26T13:49:00.327Z,2.60
2022-12-26T13:51:51.675Z,2.13
2022-12-26T13:54:21.573Z,1.60
2022-12-26T13:57:37.459Z,2.10
2022-12-26T14:00:20.437Z,1.73
2022-12-26T14:03:33.150Z,1.63
2022-12-26T14:06:41.062Z,1.67
2022-12-26T14:09:23.788Z,1.80
2022-12-26T14:12:45.999Z,1.50
2022-12-26T14:15:31.423Z,1.50
2022-12-26T14:18:19.718Z,1.50
2022-12-26T14:20:56.111Z,1.60
2022-12-26T14:23:45.719Z,1.57
2022-12-26T14:26:29.818Z,1.70
2022-12-26T14:29:07.608Z,1.20
2022-12-26T14:31:44.526Z,1.30
2022-12-26T14:34:28.820Z,1.50
2022-12-26T14:37:04.851Z,1.40
2022-12-26T14:39:44.296Z,4.63
2022-12-26T14:42:40.847Z,2.10
2022-12-26T14:45:40.147Z,1.40
2022-12-26T14:48:46.763Z,2.33
2022-12-26T14:51:48.528Z,2.13
2022-12-26T14:54:43.161Z,3.43
2022-12-26T14:57:43.344Z,2.23
2022-12-26T15:00:35.241Z,1.63
2022-12-26T15:03:47.139Z,1.60
2022-12-26T15:06:58.921Z,1.20
2022-12-26T15:10:40.206Z,1.60
2022-12-26T15:14:01.861Z,3.10
2022-12-26T15:17:08.884Z,2.40
2022-12-26T15:23:13.244Z,2.80
2022-12-26T15:26:51.008Z,1.90
2022-12-26T15:29:53.527Z,2.37
2022-12-26T15:32:33.108Z,2.50
2022-12-26T15:35:15.059Z,1.60
2022-12-26T15:38:07.999Z,2.60
2022-12-26T15:40:44.716Z,2.13
2022-12-26T15:43:49.355Z,1.73
2022-12-26T15:46:23.759Z,2.37
2022-12-26T15:49:14.336Z,2.07
2022-12-26T15:51:56.919Z,1.63
2022-12-26T15:55:12.373Z,1.77
2022-12-26T15:57:52.165Z,2.07
2022-12-26T16:00:23.976Z,1.60
2022-12-26T16:03:21.932Z,1.80
2022-12-26T16:05:59.455Z,2.07
2022-12-26T16:09:09.563Z,1.60
2022-12-26T16:11:54.432Z,1.60
2022-12-26T16:14:31.100Z,1.80
2022-12-26T16:17:21.387Z,1.50
2022-12-26T16:19:51.751Z,1.73
2022-12-26T16:22:46.987Z,1.50
2022-12-26T16:25:18.878Z,1.20
2022-12-26T16:27:51.522Z,1.30
2022-12-26T16:30:23.712Z,1.20
2022-12-26T16:32:53.331Z,1.50
2022-12-26T16:35:26.842Z,1.50
2022-12-26T16:37:59.109Z,1.20
2022-12-26T16:40:31.527Z,1.17
2022-12-26T16:43:10.025Z,1.00
2022-12-26T16:45:39.841Z,1.17
2022-12-26T16:48:10.227Z,1.10
2022-12-26T16:50:47.584Z,1.20
2022-12-26T16:53:19.343Z,1.43
2022-12-26T16:55:50.280Z,1.70
2022-12-26T16:58:25.408Z,1.60
2022-12-26T17:01:06.008Z,1.40
2022-12-26T17:03:48.907Z,2.20
2022-12-26T17:06:20.181Z,1.77
2022-12-26T17:08:51.708Z,1.40
2022-12-26T17:11:30.719Z,3.27
2022-12-26T17:14:02.835Z,5.40
2022-12-26T17:16:33.404Z,4.10
2022-12-26T17:19:16.497Z,2.57
2022-12-26T17:22:25.447Z,2.27
2022-12-26T17:25:21.268Z,4.63
2022-12-26T17:28:23.282Z,4.53
2022-12-26T17:30:54.508Z,2.33
2022-12-26T17:33:25.921Z,1.97
2022-12-26T17:38:48.496Z,0.90
2022-12-26T17:41:18.428Z,0.67
2022-12-26T17:43:48.364Z,0.80
2022-12-26T17:46:19.623Z,1.00
2022-12-26T17:48:48.039Z,1.60
2022-12-26T17:51:18.812Z,1.10
2022-12-26T17:53:51.576Z,0.80
2022-12-26T17:56:24.221Z,1.07
2022-12-26T17:58:52.798Z,0.60
2022-12-26T18:01:22.697Z,1.27
2022-12-26T18:03:52.085Z,2.27
2022-12-26T18:06:21.901Z,2.93
2022-12-26T18:08:50.326Z,3.30
2022-12-26T18:11:18.679Z,2.27
2022-12-26T18:13:46.998Z,4.00
2022-12-26T18:16:18.274Z,2.53
2022-12-26T18:18:49.407Z,0.97
2022-12-26T18:21:18.421Z,1.40
2022-12-26T18:23:46.759Z,1.00
2022-12-26T18:26:21.750Z,0.73
2022-12-26T18:28:51.938Z,0.80
2022-12-26T18:31:20.577Z,0.70
2022-12-26T18:33:50.530Z,0.80
2022-12-26T18:36:19.413Z,0.80
2022-12-26T18:38:47.925Z,0.70
2022-12-26T18:41:17.733Z,0.60
2022-12-26T18:43:46.242Z,0.53
2022-12-26T18:46:17.900Z,0.67
2022-12-26T18:48:46.528Z,0.70
2022-12-26T18:51:16.362Z,0.70
2022-12-26T18:53:55.214Z,0.50
2022-12-26T18:56:24.585Z,0.70
2022-12-26T18:58:57.889Z,0.60
2022-12-26T19:01:27.426Z,0.90
2022-12-26T19:03:55.924Z,0.90
2022-12-26T19:06:28.549Z,1.07
2022-12-26T19:08:58.511Z,0.83
2022-12-26T19:11:26.915Z,1.00
2022-12-26T19:13:55.408Z,1.10
2022-12-26T19:16:23.791Z,1.43
2022-12-26T19:18:53.007Z,1.50
2022-12-26T19:21:22.358Z,1.50
2022-12-26T19:23:52.161Z,1.40
2022-12-26T19:26:20.667Z,1.60
2022-12-26T19:28:52.822Z,2.00
2022-12-26T19:31:21.874Z,1.60
2022-12-26T19:33:50.477Z,2.23
2022-12-26T19:36:21.111Z,2.00
2022-12-26T19:38:50.884Z,1.83
2022-12-26T19:41:19.316Z,3.67
2022-12-26T19:43:47.695Z,4.47
2022-12-26T19:46:16.947Z,3.00
2022-12-26T19:48:45.648Z,3.37
2022-12-26T19:51:15.841Z,3.03
2022-12-26T19:53:46.062Z,1.87
2022-12-26T19:56:19.903Z,2.00
2022-12-26T19:58:54.682Z,2.43
2022-12-26T20:01:27.786Z,1.70
2022-12-26T20:03:58.079Z,1.93
2022-12-26T20:06:28.772Z,1.97
2022-12-26T20:09:01.067Z,1.70
2022-12-26T20:11:34.439Z,1.80
2022-12-26T20:14:04.771Z,2.50
2022-12-26T20:19:22.381Z,2.00
2022-12-26T20:21:51.464Z,2.20
2022-12-26T20:24:21.473Z,1.90
2022-12-26T20:26:51.571Z,1.90
2022-12-26T20:29:20.191Z,2.20
2022-12-26T20:31:49.481Z,2.37
2022-12-26T20:34:19.217Z,2.80
2022-12-26T20:36:47.580Z,1.90
2022-12-26T20:39:20.452Z,1.40
2022-12-26T20:41:50.215Z,0.90
2022-12-26T20:44:19.343Z,1.17
2022-12-26T20:46:47.791Z,1.60
2022-12-26T20:49:16.577Z,1.33
2022-12-26T20:51:46.501Z,1.80
2022-12-26T20:54:16.700Z,1.50
2022-12-26T20:56:46.242Z,1.80
2022-12-26T20:59:15.957Z,1.50
2022-12-26T21:01:44.754Z,1.50
2022-12-26T21:04:20.273Z,1.90
2022-12-26T21:06:50.373Z,1.20
2022-12-26T21:09:18.931Z,1.37
2022-12-26T21:11:47.260Z,1.43
2022-12-26T21:14:20.691Z,1.23
2022-12-26T21:16:52.039Z,1.30
2022-12-26T21:19:22.958Z,1.17
2022-12-26T21:21:55.815Z,1.33
2022-12-26T21:24:27.498Z,1.40
2022-12-26T21:26:57.070Z,0.83
2022-12-26T21:29:29.612Z,1.00
2022-12-26T21:31:59.203Z,1.30
2022-12-26T21:34:31.354Z,1.80
2022-12-26T21:37:26.420Z,3.37
2022-12-26T21:39:54.766Z,2.33
2022-12-26T21:42:23.064Z,1.93
2022-12-26T21:44:52.791Z,2.67
2022-12-26T21:47:21.612Z,3.40
2022-12-26T21:49:49.988Z,2.90
2022-12-26T21:52:18.285Z,3.60
2022-12-26T21:55:04.181Z,2.90
2022-12-26T21:57:34.301Z,3.33
2022-12-26T22:00:05.596Z,3.20
2022-12-26T22:02:54.523Z,2.47
2022-12-26T22:05:25.676Z,1.00
2022-12-26T22:07:55.330Z,1.93
2022-12-26T22:10:39.617Z,1.83
2022-12-26T22:13:08.804Z,1.47
2022-12-26T22:16:00.421Z,1.17
2022-12-26T22:18:28.821Z,1.30
2022-12-26T22:20:57.116Z,1.20
2022-12-26T22:23:25.563Z,1.50
2022-12-26T22:25:55.764Z,1.30
2022-12-26T22:28:24.681Z,0.80
2022-12-26T22:30:54.496Z,0.90
2022-12-26T22:33:22.997Z,0.90
2022-12-26T22:35:51.422Z,1.03
2022-12-26T22:38:20.053Z,1.00
2022-12-26T22:41:00.208Z,0.97
2022-12-26T22:43:28.950Z,1.20
2022-12-26T22:45:58.894Z,1.10
2022-12-26T22:48:27.327Z,0.90
2022-12-26T22:50:57.042Z,0.80
2022-12-26T22:53:27.119Z,0.80
2022-12-26T22:56:02.062Z,0.80
2022-12-26T22:58:32.307Z,0.93
2022-12-26T23:01:02.436Z,0.83
2022-12-26T23:03:31.066Z,1.30
2022-12-26T23:06:00.097Z,0.90
2022-12-26T23:08:29.447Z,0.93
2022-12-26T23:10:59.803Z,0.80
2022-12-26T23:13:28.966Z,1.23
2022-12-26T23:16:05.051Z,1.33
2022-12-26T23:18:59.342Z,1.03
2022-12-26T23:21:42.246Z,1.00
2022-12-26T23:24:16.240Z,0.90
2022-12-26T23:26:47.911Z,0.87
2022-12-26T23:29:36.665Z,1.10
2022-12-26T23:32:07.602Z,1.13
2022-12-26T23:34:36.885Z,1.43
2022-12-26T23:37:05.278Z,0.90
2022-12-26T23:39:33.595Z,1.10
2022-12-26T23:42:01.960Z,0.77
2022-12-26T23:44:30.957Z,0.90
2022-12-26T23:46:59.315Z,0.83
2022-12-26T23:49:29.071Z,0.80
2022-12-26T23:51:57.495Z,0.80
2022-12-26T23:54:25.984Z,1.23
2022-12-26T23:56:54.451Z,0.80
2022-12-26T23:59:22.863Z,0.90
